Time;durP1;ratioP1;P1;durP2;ratioP2;P2;SDS_P1;SDS_P2;PMS_P1;PMS_P2;Temp;Humidity;BMP_temperature;BMP_pressure;BME280_temperature;BME280_humidity;BME280_pressure;Samples;Min_cycle;Max_cycle;Signal;HPM_P1;HPM_P2
2021/05/09 00:01:00;;;;;;;1.40;0.43;;;;;;;;;;4927765;28;20039;-57
2021/05/09 00:03:26;;;;;;;2.00;0.70;;;;;;;;;;4934666;28;20396;-59
2021/05/09 00:05:52;;;;;;;2.28;0.63;;;;;;;;;;4919483;29;20039;-55
2021/05/09 00:08:18;;;;;;;1.55;0.60;;;;;;;;;;4934062;28;20066;-58
2021/05/09 00:10:44;;;;;;;2.30;0.60;;;;;;;;;;4919418;29;20052;-57
2021/05/09 00:13:10;;;;;;;2.97;0.70;;;;;;;;;;4933095;28;20532;-56
2021/05/09 00:15:36;;;;;;;3.20;0.70;;;;;;;;;;4935114;28;20128;-58
2021/05/09 00:18:02;;;;;;;1.42;0.50;;;;;;;;;;4935760;28;20083;-56
2021/05/09 00:20:28;;;;;;;1.50;0.50;;;;;;;;;;4935040;28;20122;-57
2021/05/09 00:22:54;;;;;;;2.08;0.52;;;;;;;;;;4934729;28;20462;-57
2021/05/09 00:25:20;;;;;;;2.38;0.70;;;;;;;;;;4937120;28;20054;-56
2021/05/09 00:27:46;;;;;;;2.17;0.70;;;;;;;;;;4936924;28;20078;-58
2021/05/09 00:30:12;;;;;;;1.63;0.60;;;;;;;;;;4935412;28;20455;-58
2021/05/09 00:32:38;;;;;;;2.35;0.85;;;;;;;;;;4935319;28;20032;-57
2021/05/09 00:35:04;;;;;;;2.50;0.80;;;;;;;;;;4936600;28;20035;-58
2021/05/09 00:37:31;;;;;;;1.35;0.50;;;;;;;;;;4935183;28;20039;-59
2021/05/09 00:39:56;;;;;;;6.20;1.10;;;;;;;;;;4938840;28;20031;-56
2021/05/09 00:42:22;;;;;;;2.22;0.70;;;;;;;;;;4934312;28;20074;-57
2021/05/09 00:44:49;;;;;;;1.40;0.50;;;;;;;;;;4937002;28;20047;-56
2021/05/09 00:47:15;;;;;;;1.77;0.52;;;;;;;;;;4915036;28;20116;-57
2021/05/09 00:49:41;;;;;;;1.98;0.60;;;;;;;;;;4939789;28;20102;-55
2021/05/09 00:52:11;;;;;;;1.85;0.60;;;;;;;;;;4936590;28;20039;-57
2021/05/09 00:54:39;;;;;;;2.30;0.77;;;;;;;;;;4933384;28;20048;-58
2021/05/09 00:57:06;;;;;;;2.55;0.90;;;;;;;;;;4933766;28;20516;-57
2021/05/09 00:59:35;;;;;;;1.77;0.70;;;;;;;;;;4934475;28;20039;-58
2021/05/09 01:02:01;;;;;;;2.28;0.70;;;;;;;;;;4933775;28;20040;-57
2021/05/09 01:04:27;;;;;;;2.38;0.80;;;;;;;;;;4934210;28;20043;-57
2021/05/09 01:06:53;;;;;;;3.63;0.70;;;;;;;;;;4935621;28;20035;-58
2021/05/09 01:09:19;;;;;;;2.30;0.70;;;;;;;;;;4913804;28;20059;-59
2021/05/09 01:11:45;;;;;;;1.95;0.68;;;;;;;;;;4937642;28;20134;-59
2021/05/09 01:14:11;;;;;;;1.35;0.50;;;;;;;;;;4937848;28;20043;-57
2021/05/09 01:16:37;;;;;;;1.88;0.60;;;;;;;;;;4938916;28;20035;-58
2021/05/09 01:19:03;;;;;;;3.08;0.60;;;;;;;;;;4938497;28;20035;-54
2021/05/09 01:21:29;;;;;;;1.45;0.50;;;;;;;;;;4939288;28;21991;-56
2021/05/09 01:23:55;;;;;;;1.45;0.43;;;;;;;;;;4941772;28;20047;-57
2021/05/09 01:26:20;;;;;;;2.05;0.60;;;;;;;;;;4913251;28;20066;-56
2021/05/09 01:28:46;;;;;;;2.20;0.70;;;;;;;;;;4936672;28;20092;-57
2021/05/09 01:31:12;;;;;;;1.95;0.50;;;;;;;;;;4933552;28;20047;-57
2021/05/09 01:33:38;;;;;;;1.45;0.50;;;;;;;;;;4935314;28;20047;-54
2021/05/09 01:36:04;;;;;;;1.67;0.50;;;;;;;;;;4938046;28;20055;-56
2021/05/09 01:38:30;;;;;;;1.83;0.55;;;;;;;;;;4940283;28;20051;-57
2021/05/09 01:40:56;;;;;;;2.83;0.70;;;;;;;;;;4937717;28;20043;-57
2021/05/09 01:43:22;;;;;;;1.98;0.80;;;;;;;;;;4939479;28;20042;-58
2021/05/09 01:45:47;;;;;;;2.80;1.00;;;;;;;;;;4938534;28;20050;-58
2021/05/09 01:48:13;;;;;;;1.52;0.50;;;;;;;;;;4939386;28;20051;-57
2021/05/09 01:50:39;;;;;;;1.95;0.70;;;;;;;;;;4937449;28;20134;-57
2021/05/09 01:53:05;;;;;;;2.00;0.65;;;;;;;;;;4937626;28;20040;-58
2021/05/09 01:55:31;;;;;;;1.55;0.50;;;;;;;;;;4939213;28;20055;-58
2021/05/09 01:57:57;;;;;;;2.60;0.90;;;;;;;;;;4923099;29;20073;-56
2021/05/09 02:00:23;;;;;;;2.58;0.80;;;;;;;;;;4916784;28;20540;-55
2021/05/09 02:02:50;;;;;;;1.92;0.70;;;;;;;;;;4935827;28;20045;-56
2021/05/09 02:05:16;;;;;;;1.95;0.73;;;;;;;;;;4937588;28;20035;-57
2021/05/09 02:07:42;;;;;;;2.10;0.70;;;;;;;;;;4936281;28;20085;-56
2021/05/09 02:10:09;;;;;;;3.45;0.88;;;;;;;;;;4933887;28;20614;-57
2021/05/09 02:12:35;;;;;;;1.88;0.70;;;;;;;;;;4935568;28;21567;-54
2021/05/09 02:15:02;;;;;;;2.22;0.65;;;;;;;;;;4937541;28;20070;-56
2021/05/09 02:17:28;;;;;;;2.30;0.90;;;;;;;;;;4934556;28;20069;-58
2021/05/09 02:19:54;;;;;;;2.33;0.90;;;;;;;;;;4937536;28;20039;-55
2021/05/09 02:22:20;;;;;;;1.88;0.80;;;;;;;;;;4914013;28;20051;-57
2021/05/09 02:24:46;;;;;;;3.15;1.40;;;;;;;;;;4936712;28;20043;-57
2021/05/09 02:27:12;;;;;;;2.88;1.30;;;;;;;;;;4937775;28;20059;-57
2021/05/09 02:29:38;;;;;;;2.25;0.77;;;;;;;;;;4936210;28;22673;-56
2021/05/09 02:32:04;;;;;;;2.30;0.70;;;;;;;;;;4936006;28;20049;-57
2021/05/09 02:34:30;;;;;;;3.20;1.17;;;;;;;;;;4938055;28;20962;-57
2021/05/09 02:36:56;;;;;;;1.90;0.68;;;;;;;;;;4920776;29;20085;-57
2021/05/09 02:39:22;;;;;;;3.33;1.02;;;;;;;;;;4936520;28;20949;-58
2021/05/09 02:41:48;;;;;;;1.90;0.63;;;;;;;;;;4937724;28;20414;-59
2021/05/09 02:44:13;;;;;;;2.60;0.93;;;;;;;;;;4940671;28;20172;-57
2021/05/09 02:46:39;;;;;;;2.38;0.90;;;;;;;;;;4937387;28;20079;-56
2021/05/09 02:49:05;;;;;;;2.50;0.93;;;;;;;;;;4938656;28;20055;-56
2021/05/09 02:51:31;;;;;;;2.70;0.90;;;;;;;;;;4937440;28;20490;-57
2021/05/09 02:53:57;;;;;;;2.50;1.02;;;;;;;;;;4937976;28;20046;-56
2021/05/09 02:56:23;;;;;;;2.55;1.00;;;;;;;;;;4934205;28;20045;-56
2021/05/09 02:58:48;;;;;;;1.85;0.75;;;;;;;;;;4936117;28;20070;-58
2021/05/09 03:01:14;;;;;;;3.28;0.93;;;;;;;;;;4927352;28;20564;-58
2021/05/09 03:03:40;;;;;;;2.30;0.85;;;;;;;;;;4934595;28;20105;-58
2021/05/09 03:06:06;;;;;;;3.83;0.93;;;;;;;;;;4935440;28;20355;-54
2021/05/09 03:08:34;;;;;;;3.40;1.63;;;;;;;;;;4932379;28;20346;-55
2021/05/09 03:11:00;;;;;;;3.78;1.67;;;;;;;;;;4915929;29;20044;-58
2021/05/09 03:13:26;;;;;;;3.30;1.48;;;;;;;;;;4926890;28;20557;-57
2021/05/09 03:16:12;;;;;;;1.90;0.60;;;;;;;;;;4893853;29;20051;-55
2021/05/09 03:18:37;;;;;;;3.75;1.60;;;;;;;;;;4891094;29;20480;-56
2021/05/09 03:21:05;;;;;;;2.20;0.80;;;;;;;;;;4880922;29;20069;-56
2021/05/09 03:23:30;;;;;;;2.60;0.88;;;;;;;;;;4892291;29;20043;-56
2021/05/09 03:25:56;;;;;;;2.60;0.80;;;;;;;;;;4895050;29;20059;-56
2021/05/09 03:28:22;;;;;;;2.90;0.70;;;;;;;;;;4893292;29;20056;-58
2021/05/09 03:30:48;;;;;;;3.65;1.67;;;;;;;;;;4892704;29;20095;-57
2021/05/09 03:33:14;;;;;;;2.60;1.00;;;;;;;;;;4894655;29;20289;-55
2021/05/09 03:35:39;;;;;;;3.40;1.30;;;;;;;;;;4896404;29;20478;-57
2021/05/09 03:38:06;;;;;;;2.20;0.90;;;;;;;;;;4894319;29;20047;-57
2021/05/09 03:40:32;;;;;;;3.60;1.60;;;;;;;;;;4871952;29;20082;-57
2021/05/09 03:42:58;;;;;;;4.13;1.75;;;;;;;;;;4888292;29;20036;-57
2021/05/09 03:45:24;;;;;;;3.47;1.58;;;;;;;;;;4894631;29;20044;-57
2021/05/09 03:47:50;;;;;;;3.90;2.10;;;;;;;;;;4873166;29;20051;-58
2021/05/09 03:50:16;;;;;;;3.15;1.20;;;;;;;;;;4894335;29;20032;-57
2021/05/09 03:52:42;;;;;;;3.03;1.25;;;;;;;;;;4900500;28;20119;-54
2021/05/09 03:55:09;;;;;;;3.83;2.00;;;;;;;;;;4934831;28;20351;-56
2021/05/09 03:57:35;;;;;;;4.28;2.13;;;;;;;;;;4930694;28;20059;-56
2021/05/09 04:00:02;;;;;;;3.20;1.58;;;;;;;;;;4929346;28;20130;-58
2021/05/09 04:02:28;;;;;;;5.20;2.80;;;;;;;;;;4934796;28;20207;-55
2021/05/09 04:04:53;;;;;;;3.15;1.52;;;;;;;;;;4936191;28;20054;-57
2021/05/09 04:07:19;;;;;;;4.75;2.03;;;;;;;;;;4934513;28;20111;-58
2021/05/09 04:09:46;;;;;;;2.70;1.25;;;;;;;;;;4933989;29;20059;-55
2021/05/09 04:12:12;;;;;;;5.50;2.80;;;;;;;;;;4911132;28;20599;-56
2021/05/09 04:14:39;;;;;;;4.65;2.25;;;;;;;;;;4931358;28;20051;-55
2021/05/09 04:17:05;;;;;;;5.15;2.92;;;;;;;;;;4937903;28;20054;-58
2021/05/09 04:19:31;;;;;;;3.33;1.67;;;;;;;;;;4934614;28;20051;-56
2021/05/09 04:21:57;;;;;;;4.80;3.22;;;;;;;;;;4925910;28;20050;-57
2021/05/09 04:24:23;;;;;;;4.28;2.15;;;;;;;;;;4935030;28;20042;-56
2021/05/09 04:26:49;;;;;;;5.57;2.70;;;;;;;;;;4925664;28;20043;-55
2021/05/09 04:29:15;;;;;;;5.47;3.08;;;;;;;;;;4914625;28;20047;-58
2021/05/09 04:31:41;;;;;;;6.60;3.58;;;;;;;;;;4929240;28;20144;-56
2021/05/09 04:34:07;;;;;;;7.40;3.30;;;;;;;;;;4932684;28;20662;-56
2021/05/09 04:36:33;;;;;;;4.75;2.38;;;;;;;;;;4933664;28;20043;-57
2021/05/09 04:38:58;;;;;;;7.32;3.85;;;;;;;;;;4933259;28;20726;-57
2021/05/09 04:41:24;;;;;;;4.45;2.28;;;;;;;;;;4930996;28;20102;-57
2021/05/09 04:43:50;;;;;;;6.63;3.30;;;;;;;;;;4934270;28;20099;-56
2021/05/09 04:46:16;;;;;;;6.30;3.15;;;;;;;;;;4939718;28;20754;-59
2021/05/09 04:48:42;;;;;;;4.05;2.10;;;;;;;;;;4933973;28;20055;-57
2021/05/09 04:51:08;;;;;;;4.32;2.25;;;;;;;;;;4940066;29;20058;-55
2021/05/09 04:53:35;;;;;;;4.32;2.13;;;;;;;;;;4931704;28;20075;-57
2021/05/09 04:56:02;;;;;;;3.47;1.85;;;;;;;;;;4939906;28;20050;-57
2021/05/09 04:58:29;;;;;;;4.60;2.40;;;;;;;;;;4932002;28;20046;-56
2021/05/09 05:00:59;;;;;;;3.30;1.83;;;;;;;;;;4937930;28;20531;-52
2021/05/09 05:03:25;;;;;;;4.85;2.67;;;;;;;;;;4938739;28;20051;-55
2021/05/09 05:05:50;;;;;;;3.42;1.75;;;;;;;;;;4931694;28;20050;-53
2021/05/09 05:08:16;;;;;;;4.75;2.58;;;;;;;;;;4939072;28;20058;-57
2021/05/09 05:10:42;;;;;;;5.72;2.83;;;;;;;;;;4920780;29;20106;-55
2021/05/09 05:13:18;;;;;;;4.47;2.03;;;;;;;;;;4935225;28;20043;-55
2021/05/09 05:16:05;;;;;;;4.32;2.28;;;;;;;;;;4877956;29;20113;-53
2021/05/09 05:18:31;;;;;;;4.38;2.17;;;;;;;;;;4877954;29;20041;-56
2021/05/09 05:21:06;;;;;;;4.70;1.88;;;;;;;;;;4877656;29;20171;-54
2021/05/09 05:23:43;;;;;;;6.63;3.15;;;;;;;;;;4876317;29;20033;-54
2021/05/09 05:26:09;;;;;;;5.65;2.78;;;;;;;;;;4874458;29;20053;-57
2021/05/09 05:28:35;;;;;;;7.55;3.90;;;;;;;;;;4868087;29;20133;-55
2021/05/09 05:31:01;;;;;;;6.88;3.10;;;;;;;;;;4863334;29;20059;-54
2021/05/09 05:33:28;;;;;;;6.30;3.17;;;;;;;;;;4877452;29;20479;-56
2021/05/09 05:35:55;;;;;;;4.15;1.95;;;;;;;;;;4878465;29;22225;-57
2021/05/09 05:38:21;;;;;;;6.78;3.45;;;;;;;;;;4876953;29;20071;-56
2021/05/09 05:40:48;;;;;;;7.70;3.70;;;;;;;;;;4874241;29;20124;-56
2021/05/09 05:43:15;;;;;;;6.07;2.95;;;;;;;;;;4877462;29;20045;-56
2021/05/09 05:45:41;;;;;;;6.70;2.95;;;;;;;;;;4871062;29;20128;-57
2021/05/09 05:48:07;;;;;;;3.95;1.75;;;;;;;;;;4933592;28;20055;-55
2021/05/09 05:50:33;;;;;;;5.05;2.22;;;;;;;;;;4929169;28;20032;-58
2021/05/09 05:52:58;;;;;;;7.97;4.53;;;;;;;;;;4936660;28;20463;-55
2021/05/09 05:55:24;;;;;;;6.85;3.78;;;;;;;;;;4937907;28;20094;-54
2021/05/09 05:57:50;;;;;;;6.78;3.00;;;;;;;;;;4936180;28;20040;-55
2021/05/09 06:00:36;;;;;;;7.13;3.28;;;;;;;;;;4916391;29;20048;-55
2021/05/09 06:03:02;;;;;;;6.93;3.63;;;;;;;;;;4918745;29;20410;-54
2021/05/09 06:05:27;;;;;;;6.45;3.67;;;;;;;;;;4918561;29;20039;-52
2021/05/09 06:07:53;;;;;;;4.93;2.35;;;;;;;;;;4917368;29;20470;-56
2021/05/09 06:10:19;;;;;;;4.35;2.25;;;;;;;;;;4915867;29;20044;-57
2021/05/09 06:12:45;;;;;;;6.45;3.35;;;;;;;;;;4899101;29;20050;-56
2021/05/09 06:15:11;;;;;;;7.47;4.05;;;;;;;;;;4918644;29;20040;-54
2021/05/09 06:17:37;;;;;;;6.88;3.60;;;;;;;;;;4915875;29;20174;-56
2021/05/09 06:20:04;;;;;;;5.28;2.45;;;;;;;;;;4918031;29;20051;-55
2021/05/09 06:22:30;;;;;;;6.57;3.40;;;;;;;;;;4899959;29;20231;-56
2021/05/09 06:24:56;;;;;;;7.85;4.32;;;;;;;;;;4916859;29;20135;-55
2021/05/09 06:27:41;;;;;;;5.90;3.05;;;;;;;;;;4909264;29;20059;-54
2021/05/09 06:30:08;;;;;;;9.18;5.85;;;;;;;;;;4915065;29;20088;-57
2021/05/09 06:32:34;;;;;;;8.55;4.95;;;;;;;;;;4907576;29;20040;-56
2021/05/09 06:35:00;;;;;;;5.43;3.08;;;;;;;;;;4922038;29;20044;-57
2021/05/09 06:37:46;;;;;;;7.53;4.53;;;;;;;;;;4882132;29;20094;-54
2021/05/09 06:40:12;;;;;;;8.07;4.15;;;;;;;;;;4880271;29;20052;-57
2021/05/09 06:42:38;;;;;;;6.97;3.55;;;;;;;;;;4879277;29;20104;-54
2021/05/09 06:45:08;;;;;;;6.13;3.03;;;;;;;;;;4881111;29;20052;-53
2021/05/09 06:47:34;;;;;;;8.00;4.70;;;;;;;;;;4880216;29;20151;-55
2021/05/09 06:50:00;;;;;;;6.28;3.05;;;;;;;;;;4868485;29;20040;-58
2021/05/09 06:52:26;;;;;;;7.53;4.10;;;;;;;;;;4864169;29;20057;-54
2021/05/09 06:54:52;;;;;;;5.75;3.30;;;;;;;;;;4880806;29;20049;-57
2021/05/09 06:57:18;;;;;;;9.30;5.38;;;;;;;;;;4871126;29;20112;-55
2021/05/09 06:59:43;;;;;;;6.63;3.67;;;;;;;;;;4880703;29;20063;-54
2021/05/09 07:02:09;;;;;;;5.65;2.70;;;;;;;;;;4881627;29;20056;-58
2021/05/09 07:04:35;;;;;;;7.00;3.55;;;;;;;;;;4881362;29;20643;-56
2021/05/09 07:07:01;;;;;;;9.13;4.70;;;;;;;;;;4896527;29;20044;-56
2021/05/09 07:09:27;;;;;;;10.55;4.60;;;;;;;;;;4895378;29;20434;-56
2021/05/09 07:11:53;;;;;;;10.00;5.22;;;;;;;;;;4882516;29;20937;-53
2021/05/09 07:14:19;;;;;;;7.80;4.10;;;;;;;;;;4889646;29;20044;-56
2021/05/09 07:16:45;;;;;;;7.82;4.05;;;;;;;;;;4917202;29;20051;-56
2021/05/09 07:19:10;;;;;;;9.70;6.45;;;;;;;;;;4896244;29;20810;-56
2021/05/09 07:21:41;;;;;;;8.32;4.65;;;;;;;;;;4915804;29;20042;-55
2021/05/09 07:24:07;;;;;;;6.57;3.13;;;;;;;;;;4909968;29;20059;-58
2021/05/09 07:26:33;;;;;;;8.57;4.97;;;;;;;;;;4915912;29;20547;-57
2021/05/09 07:28:59;;;;;;;11.30;6.45;;;;;;;;;;4916454;29;20062;-57
2021/05/09 07:31:25;;;;;;;6.70;4.10;;;;;;;;;;4914089;29;20040;-54
2021/05/09 07:33:51;;;;;;;7.78;4.00;;;;;;;;;;4927647;29;20047;-57
2021/05/09 07:36:17;;;;;;;11.98;7.30;;;;;;;;;;4936087;28;20027;-56
2021/05/09 07:38:43;;;;;;;8.68;4.20;;;;;;;;;;4928015;28;20050;-57
2021/05/09 07:41:09;;;;;;;9.75;5.85;;;;;;;;;;4935177;28;20105;-56
2021/05/09 07:43:35;;;;;;;9.40;6.25;;;;;;;;;;4918913;29;20382;-57
2021/05/09 07:46:00;;;;;;;10.90;7.30;;;;;;;;;;4935983;29;20047;-56
2021/05/09 07:48:26;;;;;;;6.78;3.13;;;;;;;;;;4934536;28;20056;-57
2021/05/09 07:50:52;;;;;;;10.48;7.43;;;;;;;;;;4934971;28;20560;-56
2021/05/09 07:53:19;;;;;;;8.00;5.10;;;;;;;;;;4934074;28;20410;-55
2021/05/09 07:55:45;;;;;;;7.40;4.18;;;;;;;;;;4904202;28;20759;-56
2021/05/09 07:58:32;;;;;;;4.55;2.17;;;;;;;;;;4872605;29;20052;-56
2021/05/09 08:01:01;;;;;;;10.45;4.90;;;;;;;;;;4895172;29;20044;-56
2021/05/09 08:03:28;;;;;;;6.38;3.80;;;;;;;;;;4889377;29;20032;-53
2021/05/09 08:05:53;;;;;;;8.95;5.97;;;;;;;;;;4900650;29;20434;-55
2021/05/09 08:08:21;;;;;;;10.68;7.32;;;;;;;;;;4895650;29;20054;-57
2021/05/09 08:10:47;;;;;;;13.63;7.00;;;;;;;;;;4894070;29;20639;-58
2021/05/09 08:13:13;;;;;;;8.75;5.28;;;;;;;;;;4882422;29;20041;-58
2021/05/09 08:15:39;;;;;;;11.50;6.82;;;;;;;;;;4897048;29;20126;-55
2021/05/09 08:18:25;;;;;;;10.77;7.15;;;;;;;;;;4850989;29;20041;-56
2021/05/09 08:20:52;;;;;;;10.90;7.05;;;;;;;;;;4855014;29;20046;-55
2021/05/09 08:23:39;;;;;;;13.38;8.15;;;;;;;;;;4854365;29;20492;-56
2021/05/09 08:26:05;;;;;;;12.63;8.73;;;;;;;;;;4847480;29;20064;-57
2021/05/09 08:28:31;;;;;;;17.25;10.85;;;;;;;;;;4845517;29;20153;-54
2021/05/09 08:30:58;;;;;;;15.50;10.52;;;;;;;;;;4853744;29;20044;-56
2021/05/09 08:33:23;;;;;;;17.77;11.38;;;;;;;;;;4854970;29;20043;-54
2021/05/09 08:35:49;;;;;;;16.77;9.70;;;;;;;;;;4870094;29;20044;-54
2021/05/09 08:38:15;;;;;;;13.55;7.93;;;;;;;;;;4892428;29;20044;-56
2021/05/09 08:40:41;;;;;;;19.08;12.07;;;;;;;;;;4890347;29;20032;-57
2021/05/09 08:43:07;;;;;;;19.05;10.65;;;;;;;;;;4889866;29;20040;-57
2021/05/09 08:45:33;;;;;;;19.65;11.38;;;;;;;;;;4891607;29;20123;-57
2021/05/09 08:47:58;;;;;;;20.38;10.77;;;;;;;;;;4893061;29;20056;-55
2021/05/09 08:50:26;;;;;;;17.13;10.02;;;;;;;;;;4890510;29;20053;-54
2021/05/09 08:52:52;;;;;;;19.77;9.77;;;;;;;;;;4882475;29;20159;-56
2021/05/09 08:55:23;;;;;;;16.92;9.70;;;;;;;;;;4891040;29;20209;-55
2021/05/09 08:57:49;;;;;;;7.80;4.10;;;;;;;;;;4934508;28;20044;-56
2021/05/09 09:00:15;;;;;;;13.63;7.70;;;;;;;;;;4934961;28;20055;-57
2021/05/09 09:02:42;;;;;;;11.57;6.13;;;;;;;;;;4937511;28;20043;-58
2021/05/09 09:05:08;;;;;;;13.00;8.57;;;;;;;;;;4937188;29;20043;-56
2021/05/09 09:07:43;;;;;;;10.05;5.40;;;;;;;;;;4938210;28;20425;-57
2021/05/09 09:10:09;;;;;;;18.88;9.50;;;;;;;;;;4930000;28;20055;-58
2021/05/09 09:12:39;;;;;;;17.52;9.98;;;;;;;;;;4936647;28;20043;-54
2021/05/09 09:15:05;;;;;;;17.63;10.93;;;;;;;;;;4938377;29;20059;-57
2021/05/09 09:17:31;;;;;;;17.55;10.20;;;;;;;;;;4927659;28;20067;-57
2021/05/09 09:20:01;;;;;;;19.45;12.48;;;;;;;;;;4937059;28;20484;-55
2021/05/09 09:22:27;;;;;;;19.75;11.40;;;;;;;;;;4936167;29;20044;-56
2021/05/09 09:25:07;;;;;;;13.57;7.93;;;;;;;;;;4937342;28;20063;-57
2021/05/09 09:27:33;;;;;;;16.92;9.57;;;;;;;;;;4937313;29;20819;-56
2021/05/09 09:30:04;;;;;;;15.57;8.32;;;;;;;;;;4937745;28;20050;-56
2021/05/09 09:32:30;;;;;;;11.32;6.13;;;;;;;;;;4937042;29;20117;-55
2021/05/09 09:34:56;;;;;;;19.48;11.07;;;;;;;;;;4935485;28;20042;-57
2021/05/09 09:37:23;;;;;;;11.40;5.88;;;;;;;;;;4936657;28;20039;-56
2021/05/09 09:39:53;;;;;;;16.15;8.32;;;;;;;;;;4935504;28;20098;-56
2021/05/09 09:42:37;;;;;;;9.88;5.28;;;;;;;;;;4935559;28;20067;-57
2021/05/09 09:45:17;;;;;;;19.58;10.88;;;;;;;;;;4937346;28;20419;-57
2021/05/09 09:47:56;;;;;;;12.30;5.93;;;;;;;;;;4929467;29;20050;-57
2021/05/09 09:50:41;;;;;;;17.33;6.80;;;;;;;;;;4934928;28;20039;-57
2021/05/09 09:53:25;;;;;;;13.00;6.82;;;;;;;;;;4939998;28;20776;-54
2021/05/09 09:56:00;;;;;;;18.08;8.48;;;;;;;;;;4938199;28;20479;-57
2021/05/09 09:58:46;;;;;;;22.45;14.65;;;;;;;;;;4937858;28;20059;-55
2021/05/09 10:01:13;;;;;;;15.98;8.75;;;;;;;;;;4929384;29;20058;-59
2021/05/09 10:03:39;;;;;;;19.80;10.38;;;;;;;;;;4937401;28;20363;-56
2021/05/09 10:06:06;;;;;;;19.30;11.80;;;;;;;;;;4936273;28;20043;-58
2021/05/09 10:08:33;;;;;;;15.27;6.63;;;;;;;;;;4936272;28;20057;-55
2021/05/09 10:11:03;;;;;;;12.30;6.93;;;;;;;;;;4929364;28;20055;-55
2021/05/09 10:13:30;;;;;;;17.67;9.48;;;;;;;;;;4938815;28;20678;-56
2021/05/09 10:15:57;;;;;;;15.23;8.68;;;;;;;;;;4898049;29;20039;-58
2021/05/09 10:18:25;;;;;;;19.80;10.77;;;;;;;;;;4935873;28;20067;-55
2021/05/09 10:20:51;;;;;;;22.08;11.25;;;;;;;;;;4936006;29;20138;-57
2021/05/09 10:23:18;;;;;;;12.48;7.10;;;;;;;;;;4912672;28;20031;-57
2021/05/09 10:25:45;;;;;;;14.70;9.00;;;;;;;;;;4930790;28;20055;-57
2021/05/09 10:28:11;;;;;;;13.93;8.63;;;;;;;;;;4934716;28;20055;-59
2021/05/09 10:30:47;;;;;;;11.30;6.03;;;;;;;;;;4934642;28;20439;-55
2021/05/09 10:33:31;;;;;;;16.88;9.02;;;;;;;;;;4936651;28;20040;-58
2021/05/09 10:35:57;;;;;;;17.88;10.43;;;;;;;;;;4928877;28;20051;-57
2021/05/09 10:39:01;;;;;;;16.63;9.68;;;;;;;;;;4888079;29;20040;-56
2021/05/09 10:41:26;;;;;;;;;;;;;;;;;;4888061;29;20590;-58
2021/05/09 10:43:52;;;;;;;14.70;8.15;;;;;;;;;;4889388;29;19953;-55
2021/05/09 10:46:18;;;;;;;17.27;10.38;;;;;;;;;;4886906;29;20077;-57
2021/05/09 10:48:44;;;;;;;11.98;6.60;;;;;;;;;;4881576;29;20052;-57
2021/05/09 10:51:14;;;;;;;13.57;8.82;;;;;;;;;;4887409;29;20048;-57
2021/05/09 10:53:41;;;;;;;16.02;10.27;;;;;;;;;;4887643;29;20048;-57
2021/05/09 10:56:19;;;;;;;16.40;7.97;;;;;;;;;;4889303;29;20040;-58
2021/05/09 10:58:50;;;;;;;13.48;9.30;;;;;;;;;;4886521;29;20037;-58
2021/05/09 11:01:16;;;;;;;13.60;8.88;;;;;;;;;;4886587;29;20068;-57
2021/05/09 11:03:42;;;;;;;9.95;5.80;;;;;;;;;;4888906;29;20051;-57
2021/05/09 11:06:09;;;;;;;13.75;7.47;;;;;;;;;;4887809;29;20049;-58
2021/05/09 11:08:52;;;;;;;13.57;7.78;;;;;;;;;;4886868;29;20116;-55
2021/05/09 11:11:21;;;;;;;13.70;8.43;;;;;;;;;;4887393;29;20088;-58
2021/05/09 11:13:56;;;;;;;16.13;8.48;;;;;;;;;;4885138;29;20521;-57
2021/05/09 11:16:22;;;;;;;15.70;8.70;;;;;;;;;;4910502;29;20036;-57
2021/05/09 11:18:58;;;;;;;10.05;6.53;;;;;;;;;;4936179;28;20063;-57
2021/05/09 11:21:31;;;;;;;15.02;9.73;;;;;;;;;;4917677;29;20051;-58
2021/05/09 11:24:01;;;;;;;10.23;6.35;;;;;;;;;;4934044;28;20039;-58
2021/05/09 11:26:28;;;;;;;14.73;9.20;;;;;;;;;;4934267;28;20111;-56
2021/05/09 11:29:05;;;;;;;11.88;6.72;;;;;;;;;;4934994;28;20114;-57
2021/05/09 11:31:31;;;;;;;8.07;4.97;;;;;;;;;;4924698;28;20070;-58
2021/05/09 11:33:57;;;;;;;13.63;8.43;;;;;;;;;;4921061;29;20806;-56
2021/05/09 11:36:25;;;;;;;8.52;5.15;;;;;;;;;;4935193;28;20047;-57
2021/05/09 11:38:51;;;;;;;14.57;8.23;;;;;;;;;;4935871;28;20071;-57
2021/05/09 11:41:18;;;;;;;12.85;7.47;;;;;;;;;;4935558;28;21882;-58
2021/05/09 11:44:03;;;;;;;11.98;6.60;;;;;;;;;;4935658;29;20031;-57
2021/05/09 11:46:35;;;;;;;12.13;7.78;;;;;;;;;;4936004;28;20342;-57
2021/05/09 11:49:17;;;;;;;15.95;8.27;;;;;;;;;;4935725;28;20116;-58
2021/05/09 11:51:49;;;;;;;9.52;5.07;;;;;;;;;;4909457;28;20070;-56
2021/05/09 11:54:16;;;;;;;12.50;7.57;;;;;;;;;;4914921;28;20047;-57
2021/05/09 11:57:07;;;;;;;9.40;6.00;;;;;;;;;;4923116;28;20050;-57
2021/05/09 11:59:34;;;;;;;13.05;6.43;;;;;;;;;;4930330;28;20041;-57
2021/05/09 12:02:01;;;;;;;17.17;9.35;;;;;;;;;;4935435;28;20126;-53
2021/05/09 12:04:31;;;;;;;14.80;9.15;;;;;;;;;;4927552;28;20110;-55
2021/05/09 12:07:24;;;;;;;10.68;6.95;;;;;;;;;;4952363;28;20693;-57
2021/05/09 12:09:50;;;;;;;13.85;8.80;;;;;;;;;;4944607;28;20794;-57
2021/05/09 12:12:17;;;;;;;8.85;4.78;;;;;;;;;;4951845;28;20038;-52
2021/05/09 12:14:43;;;;;;;13.48;8.98;;;;;;;;;;4951653;28;20042;-58
2021/05/09 12:17:17;;;;;;;13.70;8.82;;;;;;;;;;4943821;28;20055;-55
2021/05/09 12:19:42;;;;;;;12.85;8.30;;;;;;;;;;4940723;28;20386;-54
2021/05/09 12:22:08;;;;;;;8.43;4.78;;;;;;;;;;4931165;28;20038;-57
2021/05/09 12:24:49;;;;;;;11.05;5.85;;;;;;;;;;4944062;28;20035;-56
2021/05/09 12:27:15;;;;;;;15.98;8.48;;;;;;;;;;4952791;28;20866;-55
2021/05/09 12:29:42;;;;;;;8.77;4.75;;;;;;;;;;4942732;28;20520;-53
2021/05/09 12:32:21;;;;;;;13.82;8.18;;;;;;;;;;4936079;28;20045;-55
2021/05/09 12:35:02;;;;;;;15.35;9.23;;;;;;;;;;4904722;28;20043;-55
2021/05/09 12:37:30;;;;;;;13.88;9.18;;;;;;;;;;4947671;28;20043;-56
2021/05/09 12:40:15;;;;;;;14.25;8.40;;;;;;;;;;4934908;28;20433;-57
2021/05/09 12:43:01;;;;;;;15.27;7.80;;;;;;;;;;4933413;28;20039;-57
2021/05/09 12:45:28;;;;;;;16.98;7.57;;;;;;;;;;4936583;28;20027;-57
2021/05/09 12:48:13;;;;;;;12.55;7.15;;;;;;;;;;4935541;28;20134;-57
2021/05/09 12:50:48;;;;;;;17.50;9.05;;;;;;;;;;4918405;28;20032;-57
2021/05/09 12:53:14;;;;;;;14.48;8.32;;;;;;;;;;4938266;29;20039;-54
2021/05/09 12:55:40;;;;;;;15.40;9.27;;;;;;;;;;4936535;29;20039;-55
2021/05/09 12:58:12;;;;;;;16.95;7.72;;;;;;;;;;4938003;28;20085;-57
2021/05/09 13:00:38;;;;;;;11.15;4.40;;;;;;;;;;4933325;28;20949;-55
2021/05/09 13:03:04;;;;;;;15.98;9.32;;;;;;;;;;4939917;29;20046;-57
2021/05/09 13:05:30;;;;;;;15.65;8.38;;;;;;;;;;4941382;28;20061;-56
2021/05/09 13:08:15;;;;;;;15.77;7.47;;;;;;;;;;4913824;29;20056;-57
2021/05/09 13:10:41;;;;;;;13.98;8.02;;;;;;;;;;4913178;29;20426;-57
2021/05/09 13:13:08;;;;;;;16.80;9.18;;;;;;;;;;4915010;29;20032;-56
2021/05/09 13:15:36;;;;;;;15.70;7.97;;;;;;;;;;4892698;29;20994;-57
2021/05/09 13:18:03;;;;;;;11.95;5.13;;;;;;;;;;4909382;29;20701;-57
2021/05/09 13:20:48;;;;;;;18.95;9.20;;;;;;;;;;4857448;29;20709;-58
2021/05/09 13:23:13;;;;;;;20.98;11.85;;;;;;;;;;4862373;29;20040;-55
2021/05/09 13:25:39;;;;;;;11.02;5.95;;;;;;;;;;4854108;29;20051;-58
2021/05/09 13:28:06;;;;;;;9.40;4.82;;;;;;;;;;4857696;29;20141;-56
2021/05/09 13:30:32;;;;;;;19.73;7.47;;;;;;;;;;4871188;29;20049;-57
2021/05/09 13:32:59;;;;;;;10.65;6.03;;;;;;;;;;4856400;29;20424;-57
2021/05/09 13:35:25;;;;;;;25.15;11.52;;;;;;;;;;4857242;29;20060;-58
2021/05/09 13:37:51;;;;;;;19.60;12.07;;;;;;;;;;4857671;29;20049;-55
2021/05/09 13:40:17;;;;;;;19.40;9.75;;;;;;;;;;4894165;29;20100;-57
2021/05/09 13:42:43;;;;;;;20.85;11.57;;;;;;;;;;4880929;29;20048;-57
2021/05/09 13:45:09;;;;;;;16.58;10.05;;;;;;;;;;4881470;29;20053;-56
2021/05/09 13:47:35;;;;;;;16.85;9.68;;;;;;;;;;4879704;29;20108;-54
2021/05/09 13:50:02;;;;;;;15.30;9.45;;;;;;;;;;4880562;29;20049;-57
2021/05/09 13:52:28;;;;;;;18.05;10.52;;;;;;;;;;4876799;29;20372;-54
2021/05/09 13:54:55;;;;;;;16.23;8.68;;;;;;;;;;4878947;29;20037;-57
2021/05/09 13:57:21;;;;;;;15.88;9.65;;;;;;;;;;4887099;28;20048;-56
2021/05/09 14:00:08;;;;;;;20.00;11.13;;;;;;;;;;4920839;29;20103;-56
2021/05/09 14:02:34;;;;;;;18.92;11.95;;;;;;;;;;4927368;29;20554;-57
2021/05/09 14:05:00;;;;;;;12.25;6.45;;;;;;;;;;4920846;29;20134;-57
2021/05/09 14:07:26;;;;;;;15.38;9.38;;;;;;;;;;4920959;29;20435;-57
2021/05/09 14:09:51;;;;;;;17.70;9.63;;;;;;;;;;4919720;29;20048;-57
2021/05/09 14:12:18;;;;;;;10.80;6.22;;;;;;;;;;4918841;29;20845;-56
2021/05/09 14:14:44;;;;;;;12.80;8.07;;;;;;;;;;4918917;29;20150;-54
2021/05/09 14:17:11;;;;;;;14.70;7.97;;;;;;;;;;4917364;29;20035;-57
2021/05/09 14:19:37;;;;;;;15.73;9.77;;;;;;;;;;4920413;29;20613;-57
2021/05/09 14:22:03;;;;;;;14.93;6.95;;;;;;;;;;4920486;29;20043;-57
2021/05/09 14:24:29;;;;;;;16.48;10.30;;;;;;;;;;4917135;29;20052;-55
2021/05/09 14:26:55;;;;;;;19.23;11.20;;;;;;;;;;4917351;29;20159;-58
2021/05/09 14:29:21;;;;;;;22.35;10.82;;;;;;;;;;4918481;29;20066;-57
2021/05/09 14:31:47;;;;;;;11.48;4.97;;;;;;;;;;4926239;29;20074;-57
2021/05/09 14:34:14;;;;;;;18.17;10.25;;;;;;;;;;4916955;29;20063;-55
2021/05/09 14:36:40;;;;;;;14.57;6.68;;;;;;;;;;4915048;29;20043;-58
2021/05/09 14:39:06;;;;;;;13.70;8.32;;;;;;;;;;4922259;29;20097;-56
2021/05/09 14:41:32;;;;;;;15.07;9.35;;;;;;;;;;4912693;29;20976;-58